Terminal Aerodrome Forecast
Issued by NWS

Home | Current Version | Previous Version | Text Only | Print | Product List | Glossary On
Versions: 1 2 3 4 5 6 7 8 9 10 11 12 13 14 15
000
FTUS43 KLSX 172331
TAFUIN
TAF
KUIN 172331Z 1800/1824 08008KT P6SM BKN250
     FM180900 09014G23KT P6SM VCSH OVC050
     FM181200 11016G23KT P6SM VCSH OVC022
     FM181400 20009KT P6SM VCSH OVC015
     FM181500 23007KT P6SM OVC015
     FM181700 28014G26KT P6SM OVC020=

USA.gov is the U.S. government's official web portal to all federal, state and local government web resources and services.